sensor_id;sensor_type;location;lat;lon;timestamp;pressure;altitude;pressure_sealevel;temperature;humidity
11036;BME280;5571;48.110;-1.706;2022-08-30T00:00:33;101247.56;;;21.75;89.54
11036;BME280;5571;48.110;-1.706;2022-08-30T00:03:17;101248.09;;;21.79;89.49
11036;BME280;5571;48.110;-1.706;2022-08-30T00:05:44;101248.69;;;21.82;89.38
11036;BME280;5571;48.110;-1.706;2022-08-30T00:08:10;101249.94;;;21.88;89.01
11036;BME280;5571;48.110;-1.706;2022-08-30T00:10:36;101248.81;;;21.81;89.16
11036;BME280;5571;48.110;-1.706;2022-08-30T00:13:03;101247.97;;;21.80;88.90
11036;BME280;5571;48.110;-1.706;2022-08-30T00:15:31;101243.03;;;21.76;89.51
11036;BME280;5571;48.110;-1.706;2022-08-30T00:17:56;101247.28;;;21.69;89.71
11036;BME280;5571;48.110;-1.706;2022-08-30T00:20:27;101246.69;;;21.65;89.84
11036;BME280;5571;48.110;-1.706;2022-08-30T00:22:52;101249.81;;;21.61;89.95
11036;BME280;5571;48.110;-1.706;2022-08-30T00:25:18;101244.44;;;21.61;90.73
11036;BME280;5571;48.110;-1.706;2022-08-30T00:27:44;101243.34;;;21.54;91.11
11036;BME280;5571;48.110;-1.706;2022-08-30T00:30:11;101244.06;;;21.56;91.04
11036;BME280;5571;48.110;-1.706;2022-08-30T00:32:37;101249.25;;;21.57;90.51
11036;BME280;5571;48.110;-1.706;2022-08-30T00:35:04;101243.63;;;21.60;89.82
11036;BME280;5571;48.110;-1.706;2022-08-30T00:37:31;101249.81;;;21.61;90.27
11036;BME280;5571;48.110;-1.706;2022-08-30T00:39:57;101240.81;;;21.62;89.67
11036;BME280;5571;48.110;-1.706;2022-08-30T00:42:22;101240.25;;;21.58;89.62
11036;BME280;5571;48.110;-1.706;2022-08-30T00:44:48;101245.03;;;21.55;89.90
11036;BME280;5571;48.110;-1.706;2022-08-30T00:47:14;101241.63;;;21.43;90.21
11036;BME280;5571;48.110;-1.706;2022-08-30T00:49:42;101242.63;;;21.32;91.34
11036;BME280;5571;48.110;-1.706;2022-08-30T00:52:10;101249.94;;;21.30;91.55
11036;BME280;5571;48.110;-1.706;2022-08-30T00:54:39;101249.81;;;21.32;91.53
11036;BME280;5571;48.110;-1.706;2022-08-30T00:57:06;101249.50;;;21.35;91.09
11036;BME280;5571;48.110;-1.706;2022-08-30T00:59:32;101247.81;;;21.34;91.45
11036;BME280;5571;48.110;-1.706;2022-08-30T01:01:59;101248.53;;;21.36;91.23
11036;BME280;5571;48.110;-1.706;2022-08-30T01:04:26;101241.50;;;21.35;90.63
11036;BME280;5571;48.110;-1.706;2022-08-30T01:06:52;101238.56;;;21.38;90.43
11036;BME280;5571;48.110;-1.706;2022-08-30T01:09:19;101238.13;;;21.23;90.66
11036;BME280;5571;48.110;-1.706;2022-08-30T01:11:46;101243.59;;;21.22;90.86
11036;BME280;5571;48.110;-1.706;2022-08-30T01:14:12;101247.25;;;21.21;90.96
11036;BME280;5571;48.110;-1.706;2022-08-30T01:16:41;101248.19;;;21.10;91.97
11036;BME280;5571;48.110;-1.706;2022-08-30T01:19:30;101246.91;;;21.05;91.59
11036;BME280;5571;48.110;-1.706;2022-08-30T01:22:18;101257.03;;;21.01;92.17
11036;BME280;5571;48.110;-1.706;2022-08-30T01:24:45;101254.19;;;21.02;92.14
11036;BME280;5571;48.110;-1.706;2022-08-30T01:27:13;101262.22;;;21.02;92.11
11036;BME280;5571;48.110;-1.706;2022-08-30T01:29:40;101260.13;;;21.06;91.75
11036;BME280;5571;48.110;-1.706;2022-08-30T01:32:18;101249.44;;;21.06;91.51
11036;BME280;5571;48.110;-1.706;2022-08-30T01:34:44;101257.47;;;21.06;91.62
11036;BME280;5571;48.110;-1.706;2022-08-30T01:37:20;101256.88;;;21.02;91.81
11036;BME280;5571;48.110;-1.706;2022-08-30T01:39:46;101257.44;;;20.96;91.83
11036;BME280;5571;48.110;-1.706;2022-08-30T01:42:15;101254.44;;;20.90;92.17
11036;BME280;5571;48.110;-1.706;2022-08-30T01:44:44;101258.53;;;20.94;92.25
11036;BME280;5571;48.110;-1.706;2022-08-30T01:47:11;101253.50;;;21.00;91.92
11036;BME280;5571;48.110;-1.706;2022-08-30T01:49:37;101262.38;;;21.01;90.78
11036;BME280;5571;48.110;-1.706;2022-08-30T01:52:04;101253.19;;;20.94;91.22
11036;BME280;5571;48.110;-1.706;2022-08-30T01:54:30;101266.84;;;20.91;91.48
11036;BME280;5571;48.110;-1.706;2022-08-30T01:56:56;101272.50;;;20.97;91.29
11036;BME280;5571;48.110;-1.706;2022-08-30T01:59:21;101274.88;;;21.00;90.92
11036;BME280;5571;48.110;-1.706;2022-08-30T02:01:47;101270.94;;;21.05;90.54
11036;BME280;5571;48.110;-1.706;2022-08-30T02:04:12;101273.94;;;21.11;90.35
11036;BME280;5571;48.110;-1.706;2022-08-30T02:06:39;101263.84;;;21.15;90.18
11036;BME280;5571;48.110;-1.706;2022-08-30T02:09:04;101263.13;;;21.13;90.06
11036;BME280;5571;48.110;-1.706;2022-08-30T02:11:30;101276.50;;;21.13;89.68
11036;BME280;5571;48.110;-1.706;2022-08-30T02:13:55;101273.81;;;21.13;89.47
11036;BME280;5571;48.110;-1.706;2022-08-30T02:16:22;101271.69;;;21.16;89.58
11036;BME280;5571;48.110;-1.706;2022-08-30T02:18:50;101275.94;;;21.19;89.30
11036;BME280;5571;48.110;-1.706;2022-08-30T02:21:16;101268.91;;;21.18;88.94
11036;BME280;5571;48.110;-1.706;2022-08-30T02:23:42;101260.88;;;21.18;88.72
11036;BME280;5571;48.110;-1.706;2022-08-30T02:26:08;101263.97;;;21.13;89.10
11036;BME280;5571;48.110;-1.706;2022-08-30T02:28:34;101261.28;;;21.13;89.04
11036;BME280;5571;48.110;-1.706;2022-08-30T02:31:00;101265.78;;;21.13;88.90
11036;BME280;5571;48.110;-1.706;2022-08-30T02:33:25;101268.00;;;21.08;88.94
11036;BME280;5571;48.110;-1.706;2022-08-30T02:35:51;101273.63;;;21.05;89.03
11036;BME280;5571;48.110;-1.706;2022-08-30T02:38:16;101270.81;;;21.06;88.99
11036;BME280;5571;48.110;-1.706;2022-08-30T02:40:42;101270.81;;;21.06;88.89
11036;BME280;5571;48.110;-1.706;2022-08-30T02:43:09;101267.44;;;21.04;89.14
11036;BME280;5571;48.110;-1.706;2022-08-30T02:45:35;101264.63;;;21.06;88.62
11036;BME280;5571;48.110;-1.706;2022-08-30T02:48:01;101268.72;;;21.10;88.44
11036;BME280;5571;48.110;-1.706;2022-08-30T02:50:26;101264.22;;;21.10;88.13
11036;BME280;5571;48.110;-1.706;2022-08-30T02:52:52;101269.97;;;21.06;88.04
11036;BME280;5571;48.110;-1.706;2022-08-30T02:55:18;101261.25;;;21.04;88.63
11036;BME280;5571;48.110;-1.706;2022-08-30T02:57:43;101266.59;;;21.04;88.20
11036;BME280;5571;48.110;-1.706;2022-08-30T03:00:11;101266.03;;;21.00;88.34
11036;BME280;5571;48.110;-1.706;2022-08-30T03:02:38;101265.91;;;21.02;88.02
11036;BME280;5571;48.110;-1.706;2022-08-30T03:05:05;101266.88;;;21.00;88.08
11036;BME280;5571;48.110;-1.706;2022-08-30T03:07:31;101262.38;;;21.01;87.76
11036;BME280;5571;48.110;-1.706;2022-08-30T03:09:56;101250.56;;;21.04;87.63
11036;BME280;5571;48.110;-1.706;2022-08-30T03:12:22;101250.84;;;21.00;87.44
11036;BME280;5571;48.110;-1.706;2022-08-30T03:14:49;101257.88;;;21.02;87.28
11036;BME280;5571;48.110;-1.706;2022-08-30T03:17:15;101255.63;;;20.97;87.16
11036;BME280;5571;48.110;-1.706;2022-08-30T03:19:41;101253.34;;;20.92;87.04
11036;BME280;5571;48.110;-1.706;2022-08-30T03:22:07;101252.91;;;20.87;87.14
11036;BME280;5571;48.110;-1.706;2022-08-30T03:24:33;101256.28;;;20.89;87.02
11036;BME280;5571;48.110;-1.706;2022-08-30T03:26:58;101255.00;;;20.84;87.16
11036;BME280;5571;48.110;-1.706;2022-08-30T03:29:24;101249.66;;;20.84;87.34
11036;BME280;5571;48.110;-1.706;2022-08-30T03:31:50;101250.78;;;20.81;86.87
11036;BME280;5571;48.110;-1.706;2022-08-30T03:34:16;101240.31;;;20.69;87.22
11036;BME280;5571;48.110;-1.706;2022-08-30T03:36:42;101241.59;;;20.65;88.09
11036;BME280;5571;48.110;-1.706;2022-08-30T03:39:08;101245.09;;;20.65;87.32
11036;BME280;5571;48.110;-1.706;2022-08-30T03:41:34;101245.38;;;20.62;87.35
11036;BME280;5571;48.110;-1.706;2022-08-30T03:44:00;101248.03;;;20.62;86.96
11036;BME280;5571;48.110;-1.706;2022-08-30T03:46:26;101245.50;;;20.61;87.81
11036;BME280;5571;48.110;-1.706;2022-08-30T03:48:52;101240.28;;;20.59;87.41
11036;BME280;5571;48.110;-1.706;2022-08-30T03:51:23;101240.16;;;20.61;87.54
11036;BME280;5571;48.110;-1.706;2022-08-30T03:53:48;101243.94;;;20.58;87.48
11036;BME280;5571;48.110;-1.706;2022-08-30T03:56:14;101237.88;;;20.56;87.79
11036;BME280;5571;48.110;-1.706;2022-08-30T03:58:40;101233.81;;;20.52;87.30
11036;BME280;5571;48.110;-1.706;2022-08-30T04:01:06;101244.72;;;20.49;88.20
11036;BME280;5571;48.110;-1.706;2022-08-30T04:03:31;101242.66;;;20.52;87.83
11036;BME280;5571;48.110;-1.706;2022-08-30T04:05:57;101245.56;;;20.49;87.59
11036;BME280;5571;48.110;-1.706;2022-08-30T04:08:23;101246.81;;;20.45;87.93
11036;BME280;5571;48.110;-1.706;2022-08-30T04:10:49;101247.09;;;20.42;88.19
11036;BME280;5571;48.110;-1.706;2022-08-30T04:13:17;101252.56;;;20.41;88.37
11036;BME280;5571;48.110;-1.706;2022-08-30T04:15:42;101238.38;;;20.40;88.45
11036;BME280;5571;48.110;-1.706;2022-08-30T04:18:08;101245.41;;;20.41;88.25
11036;BME280;5571;48.110;-1.706;2022-08-30T04:20:34;101247.09;;;20.42;88.36
11036;BME280;5571;48.110;-1.706;2022-08-30T04:22:59;101252.31;;;20.44;88.18
11036;BME280;5571;48.110;-1.706;2022-08-30T04:25:26;101249.66;;;20.44;88.00
11036;BME280;5571;48.110;-1.706;2022-08-30T04:27:52;101253.00;;;20.46;88.13
11036;BME280;5571;48.110;-1.706;2022-08-30T04:30:18;101258.06;;;20.49;87.86
11036;BME280;5571;48.110;-1.706;2022-08-30T04:32:44;101263.88;;;20.54;87.65
11036;BME280;5571;48.110;-1.706;2022-08-30T04:35:11;101266.53;;;20.54;87.39
11036;BME280;5571;48.110;-1.706;2022-08-30T04:37:37;101266.53;;;20.54;87.09
11036;BME280;5571;48.110;-1.706;2022-08-30T04:40:04;101265.69;;;20.53;87.04
11036;BME280;5571;48.110;-1.706;2022-08-30T04:42:32;101273.97;;;20.50;86.69
11036;BME280;5571;48.110;-1.706;2022-08-30T04:45:00;101274.09;;;20.49;87.34
11036;BME280;5571;48.110;-1.706;2022-08-30T04:47:26;101274.25;;;20.47;87.17
11036;BME280;5571;48.110;-1.706;2022-08-30T04:49:52;101267.22;;;20.46;87.16
11036;BME280;5571;48.110;-1.706;2022-08-30T04:52:17;101270.84;;;20.45;87.23
11036;BME280;5571;48.110;-1.706;2022-08-30T04:54:43;101274.06;;;20.39;87.60
11036;BME280;5571;48.110;-1.706;2022-08-30T04:57:09;101282.31;;;20.36;87.80
11036;BME280;5571;48.110;-1.706;2022-08-30T04:59:34;101288.41;;;20.38;87.72
11036;BME280;5571;48.110;-1.706;2022-08-30T05:02:00;101286.56;;;20.39;87.75
11036;BME280;5571;48.110;-1.706;2022-08-30T05:04:25;101285.00;;;20.36;87.64
11036;BME280;5571;48.110;-1.706;2022-08-30T05:06:50;101285.75;;;20.27;88.27
11036;BME280;5571;48.110;-1.706;2022-08-30T05:09:17;101292.47;;;20.22;88.43
11036;BME280;5571;48.110;-1.706;2022-08-30T05:11:42;101294.69;;;20.17;88.55
11036;BME280;5571;48.110;-1.706;2022-08-30T05:14:08;101301.00;;;20.16;89.09
11036;BME280;5571;48.110;-1.706;2022-08-30T05:16:33;101301.00;;;20.16;89.25
11036;BME280;5571;48.110;-1.706;2022-08-30T05:18:59;101299.44;;;20.13;89.45
11036;BME280;5571;48.110;-1.706;2022-08-30T05:21:25;101295.66;;;20.16;89.27
11036;BME280;5571;48.110;-1.706;2022-08-30T05:23:53;101299.28;;;20.15;88.98
11036;BME280;5571;48.110;-1.706;2022-08-30T05:26:22;101296.91;;;20.11;89.14
11036;BME280;5571;48.110;-1.706;2022-08-30T05:28:48;101301.13;;;20.14;88.83
11036;BME280;5571;48.110;-1.706;2022-08-30T05:33:41;101308.34;;;20.02;89.16
11036;BME280;5571;48.110;-1.706;2022-08-30T05:36:08;101312.94;;;20.00;89.05
11036;BME280;5571;48.110;-1.706;2022-08-30T05:38:34;101319.78;;;19.93;89.49
11036;BME280;5571;48.110;-1.706;2022-08-30T05:40:59;101323.69;;;19.89;89.79
11036;BME280;5571;48.110;-1.706;2022-08-30T05:43:24;101321.88;;;19.90;89.80
11036;BME280;5571;48.110;-1.706;2022-08-30T05:46:04;101326.38;;;19.89;89.85
11036;BME280;5571;48.110;-1.706;2022-08-30T05:48:31;101322.47;;;19.93;89.95
11036;BME280;5571;48.110;-1.706;2022-08-30T05:51:02;101328.91;;;19.91;89.70
11036;BME280;5571;48.110;-1.706;2022-08-30T05:53:27;101334.84;;;19.94;89.70
11036;BME280;5571;48.110;-1.706;2022-08-30T05:55:53;101332.00;;;19.96;89.44
11036;BME280;5571;48.110;-1.706;2022-08-30T05:58:18;101333.00;;;19.95;89.46
11036;BME280;5571;48.110;-1.706;2022-08-30T06:00:43;101344.91;;;19.91;88.94
11036;BME280;5571;48.110;-1.706;2022-08-30T06:03:09;101351.91;;;19.92;89.79
11036;BME280;5571;48.110;-1.706;2022-08-30T06:05:36;101351.59;;;19.85;89.88
11036;BME280;5571;48.110;-1.706;2022-08-30T06:08:02;101349.53;;;19.78;90.80
11036;BME280;5571;48.110;-1.706;2022-08-30T06:10:27;101357.16;;;19.82;90.31
11036;BME280;5571;48.110;-1.706;2022-08-30T06:12:53;101352.34;;;19.76;90.16
11036;BME280;5571;48.110;-1.706;2022-08-30T06:15:18;101349.59;;;19.66;91.81
11036;BME280;5571;48.110;-1.706;2022-08-30T06:17:43;101359.41;;;19.66;91.04
11036;BME280;5571;48.110;-1.706;2022-08-30T06:20:09;101355.13;;;19.75;90.56
11036;BME280;5571;48.110;-1.706;2022-08-30T06:22:35;101355.50;;;19.70;90.65
11036;BME280;5571;48.110;-1.706;2022-08-30T06:25:03;101356.56;;;19.79;90.67
11036;BME280;5571;48.110;-1.706;2022-08-30T06:27:28;101361.78;;;19.80;90.13
11036;BME280;5571;48.110;-1.706;2022-08-30T06:29:55;101361.41;;;19.85;90.19
11036;BME280;5571;48.110;-1.706;2022-08-30T06:32:21;101357.84;;;19.95;89.64
11036;BME280;5571;48.110;-1.706;2022-08-30T06:34:47;101366.47;;;19.99;89.08
11036;BME280;5571;48.110;-1.706;2022-08-30T06:37:12;101362.19;;;20.07;88.71
11036;BME280;5571;48.110;-1.706;2022-08-30T06:39:37;101366.97;;;20.13;87.88
11036;BME280;5571;48.110;-1.706;2022-08-30T06:42:03;101364.19;;;20.15;88.17
11036;BME280;5571;48.110;-1.706;2022-08-30T06:44:28;101364.66;;;20.20;87.81
11036;BME280;5571;48.110;-1.706;2022-08-30T06:46:54;101369.50;;;20.26;87.38
11036;BME280;5571;48.110;-1.706;2022-08-30T06:49:20;101370.59;;;20.24;87.18
11036;BME280;5571;48.110;-1.706;2022-08-30T06:51:45;101370.19;;;20.28;86.87
11036;BME280;5571;48.110;-1.706;2022-08-30T06:54:11;101377.00;;;20.32;86.84
11036;BME280;5571;48.110;-1.706;2022-08-30T06:56:37;101368.13;;;20.32;86.28
11036;BME280;5571;48.110;-1.706;2022-08-30T06:59:03;101381.25;;;20.35;86.45
11036;BME280;5571;48.110;-1.706;2022-08-30T07:01:29;101377.06;;;20.42;85.42
11036;BME280;5571;48.110;-1.706;2022-08-30T07:03:55;101379.94;;;20.50;84.57
11036;BME280;5571;48.110;-1.706;2022-08-30T07:06:22;101387.03;;;20.61;84.74
11036;BME280;5571;48.110;-1.706;2022-08-30T07:08:49;101391.25;;;20.63;84.29
11036;BME280;5571;48.110;-1.706;2022-08-30T07:11:24;101381.88;;;20.69;83.52
11036;BME280;5571;48.110;-1.706;2022-08-30T07:13:50;101386.13;;;20.71;83.91
11036;BME280;5571;48.110;-1.706;2022-08-30T07:16:15;101393.53;;;20.68;84.12
11036;BME280;5571;48.110;-1.706;2022-08-30T07:18:40;101387.84;;;20.82;83.80
11036;BME280;5571;48.110;-1.706;2022-08-30T07:21:23;101382.69;;;20.90;83.41
11036;BME280;5571;48.110;-1.706;2022-08-30T07:23:49;101388.38;;;20.96;82.46
11036;BME280;5571;48.110;-1.706;2022-08-30T07:26:19;101388.22;;;20.98;82.04
11036;BME280;5571;48.110;-1.706;2022-08-30T07:28:45;101389.50;;;21.04;82.21
11036;BME280;5571;48.110;-1.706;2022-08-30T07:31:12;101391.41;;;21.13;81.64
11036;BME280;5571;48.110;-1.706;2022-08-30T07:33:38;101392.34;;;21.12;82.02
11036;BME280;5571;48.110;-1.706;2022-08-30T07:36:05;101401.00;;;21.15;81.34
11036;BME280;5571;48.110;-1.706;2022-08-30T07:38:31;101392.72;;;21.18;81.43
11036;BME280;5571;48.110;-1.706;2022-08-30T07:40:58;101394.69;;;21.26;80.47
11036;BME280;5571;48.110;-1.706;2022-08-30T07:43:31;101400.06;;;21.26;80.40
11036;BME280;5571;48.110;-1.706;2022-08-30T07:46:06;101404.88;;;21.32;79.83
11036;BME280;5571;48.110;-1.706;2022-08-30T07:48:33;101409.00;;;21.46;79.27
11036;BME280;5571;48.110;-1.706;2022-08-30T07:50:58;101405.91;;;21.50;78.92
11036;BME280;5571;48.110;-1.706;2022-08-30T07:53:24;101405.94;;;21.60;78.39
11036;BME280;5571;48.110;-1.706;2022-08-30T07:55:49;101401.28;;;21.62;78.37
11036;BME280;5571;48.110;-1.706;2022-08-30T07:58:14;101403.31;;;21.69;78.08
11036;BME280;5571;48.110;-1.706;2022-08-30T08:00:40;101408.81;;;21.77;77.78
11036;BME280;5571;48.110;-1.706;2022-08-30T08:03:07;101401.78;;;21.86;77.51
11036;BME280;5571;48.110;-1.706;2022-08-30T08:05:41;101393.75;;;21.86;77.56
11036;BME280;5571;48.110;-1.706;2022-08-30T08:08:07;101404.88;;;21.91;77.26
11036;BME280;5571;48.110;-1.706;2022-08-30T08:10:36;101396.19;;;21.99;77.06
11036;BME280;5571;48.110;-1.706;2022-08-30T08:13:01;101407.31;;;22.04;77.11
11036;BME280;5571;48.110;-1.706;2022-08-30T08:15:27;101404.78;;;22.21;76.76
11036;BME280;5571;48.110;-1.706;2022-08-30T08:17:53;101405.91;;;22.28;76.00
11036;BME280;5571;48.110;-1.706;2022-08-30T08:20:18;101409.00;;;22.43;74.80
11036;BME280;5571;48.110;-1.706;2022-08-30T08:22:43;101413.75;;;22.59;74.61
11036;BME280;5571;48.110;-1.706;2022-08-30T08:25:09;101411.34;;;22.65;71.95
11036;BME280;5571;48.110;-1.706;2022-08-30T08:27:34;101408.41;;;22.78;71.66
11036;BME280;5571;48.110;-1.706;2022-08-30T08:30:00;101404.72;;;22.89;70.70
11036;BME280;5571;48.110;-1.706;2022-08-30T08:32:25;101417.66;;;23.03;70.45
11036;BME280;5571;48.110;-1.706;2022-08-30T08:34:50;101411.00;;;23.07;69.72
11036;BME280;5571;48.110;-1.706;2022-08-30T08:37:16;101410.81;;;23.18;69.29
11036;BME280;5571;48.110;-1.706;2022-08-30T08:39:42;101413.06;;;23.23;68.92
11036;BME280;5571;48.110;-1.706;2022-08-30T08:42:16;101416.00;;;23.29;68.38
11036;BME280;5571;48.110;-1.706;2022-08-30T08:47:53;101414.94;;;23.49;68.75
11036;BME280;5571;48.110;-1.706;2022-08-30T08:50:21;101411.34;;;23.58;67.85
11036;BME280;5571;48.110;-1.706;2022-08-30T08:52:56;101414.97;;;23.67;67.47
11036;BME280;5571;48.110;-1.706;2022-08-30T08:55:45;101411.00;;;23.71;67.61
11036;BME280;5571;48.110;-1.706;2022-08-30T08:58:25;101411.00;;;23.89;67.15
11036;BME280;5571;48.110;-1.706;2022-08-30T09:00:52;101405.28;;;24.01;66.46
11036;BME280;5571;48.110;-1.706;2022-08-30T09:03:19;101408.91;;;24.10;65.02
11036;BME280;5571;48.110;-1.706;2022-08-30T09:05:46;101409.16;;;24.17;65.17
11036;BME280;5571;48.110;-1.706;2022-08-30T09:08:14;101412.69;;;24.17;65.24
11036;BME280;5571;48.110;-1.706;2022-08-30T09:10:52;101409.06;;;24.26;65.32
11036;BME280;5571;48.110;-1.706;2022-08-30T09:13:21;101410.13;;;24.33;62.81
11036;BME280;5571;48.110;-1.706;2022-08-30T09:15:47;101403.69;;;24.44;62.12
11036;BME280;5571;48.110;-1.706;2022-08-30T09:18:12;101404.00;;;24.41;62.31
11036;BME280;5571;48.110;-1.706;2022-08-30T09:20:41;101409.56;;;24.47;61.96
11036;BME280;5571;48.110;-1.706;2022-08-30T09:23:21;101406.94;;;24.56;62.11
11036;BME280;5571;48.110;-1.706;2022-08-30T09:25:55;101408.63;;;24.57;61.66
11036;BME280;5571;48.110;-1.706;2022-08-30T09:31:32;101414.94;;;24.47;61.90
11036;BME280;5571;48.110;-1.706;2022-08-30T09:34:00;101411.31;;;24.57;61.62
11036;BME280;5571;48.110;-1.706;2022-08-30T09:36:48;101423.22;;;24.72;61.76
11036;BME280;5571;48.110;-1.706;2022-08-30T09:39:19;101417.81;;;24.89;61.15
11036;BME280;5571;48.110;-1.706;2022-08-30T09:41:50;101420.78;;;25.04;60.88
11036;BME280;5571;48.110;-1.706;2022-08-30T09:44:22;101411.56;;;25.15;59.80
11036;BME280;5571;48.110;-1.706;2022-08-30T09:46:53;101411.22;;;25.18;60.24
11036;BME280;5571;48.110;-1.706;2022-08-30T09:49:30;101419.38;;;25.26;60.76
11036;BME280;5571;48.110;-1.706;2022-08-30T10:00:43;101426.81;;;25.66;57.83
11036;BME280;5571;48.110;-1.706;2022-08-30T10:03:27;101419.38;;;25.68;57.15
11036;BME280;5571;48.110;-1.706;2022-08-30T10:06:16;101420.09;;;25.78;57.49
11036;BME280;5571;48.110;-1.706;2022-08-30T10:11:40;101430.41;;;25.99;57.92
11036;BME280;5571;48.110;-1.706;2022-08-30T10:27:39;101404.56;;;26.46;56.19
11036;BME280;5571;48.110;-1.706;2022-08-30T10:30:09;101404.38;;;26.56;55.82
11036;BME280;5571;48.110;-1.706;2022-08-30T10:32:59;101394.06;;;26.67;54.69
11036;BME280;5571;48.110;-1.706;2022-08-30T10:35:28;101403.34;;;26.89;53.38
11036;BME280;5571;48.110;-1.706;2022-08-30T10:38:05;101398.25;;;26.94;53.53
11036;BME280;5571;48.110;-1.706;2022-08-30T10:40:35;101397.75;;;26.99;53.52
11036;BME280;5571;48.110;-1.706;2022-08-30T10:46:10;101404.75;;;27.24;53.87
11036;BME280;5571;48.110;-1.706;2022-08-30T10:48:43;101401.84;;;27.34;53.12
11036;BME280;5571;48.110;-1.706;2022-08-30T10:51:35;101404.97;;;27.45;53.58
11036;BME280;5571;48.110;-1.706;2022-08-30T10:54:09;101409.56;;;27.53;53.93
11036;BME280;5571;48.110;-1.706;2022-08-30T10:56:39;101402.63;;;27.58;52.86
11036;BME280;5571;48.110;-1.706;2022-08-30T10:59:06;101404.06;;;27.69;51.29
11036;BME280;5571;48.110;-1.706;2022-08-30T11:01:52;101401.66;;;27.74;52.01
11036;BME280;5571;48.110;-1.706;2022-08-30T11:07:12;101402.16;;;28.00;52.52
11036;BME280;5571;48.110;-1.706;2022-08-30T11:12:37;101398.50;;;28.24;51.21
11036;BME280;5571;48.110;-1.706;2022-08-30T11:15:21;101395.03;;;28.30;50.76
11036;BME280;5571;48.110;-1.706;2022-08-30T11:18:10;101396.38;;;28.34;51.00
11036;BME280;5571;48.110;-1.706;2022-08-30T11:20:41;101390.69;;;28.44;50.86
11036;BME280;5571;48.110;-1.706;2022-08-30T11:25:54;101390.81;;;28.73;50.51
11036;BME280;5571;48.110;-1.706;2022-08-30T11:31:12;101388.47;;;29.00;49.55
11036;BME280;5571;48.110;-1.706;2022-08-30T11:33:54;101386.91;;;29.05;48.92
11036;BME280;5571;48.110;-1.706;2022-08-30T11:41:43;101383.59;;;29.24;48.38
11036;BME280;5571;48.110;-1.706;2022-08-30T11:46:55;101379.66;;;29.56;47.42
11036;BME280;5571;48.110;-1.706;2022-08-30T11:57:16;101365.31;;;29.77;47.55
11036;BME280;5571;48.110;-1.706;2022-08-30T12:00:29;101361.47;;;29.86;47.12
11036;BME280;5571;48.110;-1.706;2022-08-30T12:03:04;101365.19;;;30.00;47.78
11036;BME280;5571;48.110;-1.706;2022-08-30T12:10:59;101362.63;;;30.19;45.99
11036;BME280;5571;48.110;-1.706;2022-08-30T12:18:59;101353.97;;;30.52;45.40
11036;BME280;5571;48.110;-1.706;2022-08-30T12:21:35;101346.16;;;30.70;45.05
11036;BME280;5571;48.110;-1.706;2022-08-30T12:24:24;101348.94;;;30.83;44.85
11036;BME280;5571;48.110;-1.706;2022-08-30T12:26:51;101347.41;;;31.02;44.19
11036;BME280;5571;48.110;-1.706;2022-08-30T12:29:25;101340.19;;;31.16;43.63
11036;BME280;5571;48.110;-1.706;2022-08-30T12:32:04;101346.09;;;31.32;43.09
11036;BME280;5571;48.110;-1.706;2022-08-30T12:37:36;101337.16;;;31.51;42.49
11036;BME280;5571;48.110;-1.706;2022-08-30T12:40:09;101343.94;;;31.69;42.42
11036;BME280;5571;48.110;-1.706;2022-08-30T12:42:37;101335.16;;;31.80;41.69
11036;BME280;5571;48.110;-1.706;2022-08-30T12:45:13;101336.00;;;31.80;41.48
11036;BME280;5571;48.110;-1.706;2022-08-30T12:48:00;101343.72;;;31.83;41.63
11036;BME280;5571;48.110;-1.706;2022-08-30T12:50:52;101337.66;;;31.88;41.37
11036;BME280;5571;48.110;-1.706;2022-08-30T12:53:24;101339.59;;;32.01;40.72
11036;BME280;5571;48.110;-1.706;2022-08-30T12:56:05;101331.00;;;32.04;40.65
11036;BME280;5571;48.110;-1.706;2022-08-30T12:58:44;101328.31;;;32.17;40.05
11036;BME280;5571;48.110;-1.706;2022-08-30T13:04:20;101332.72;;;32.31;39.94
11036;BME280;5571;48.110;-1.706;2022-08-30T13:06:50;101327.28;;;32.18;39.57
11036;BME280;5571;48.110;-1.706;2022-08-30T13:09:33;101329.13;;;31.91;40.49
11036;BME280;5571;48.110;-1.706;2022-08-30T13:12:05;101327.84;;;31.93;40.71
11036;BME280;5571;48.110;-1.706;2022-08-30T13:14:37;101324.34;;;32.13;40.57
11036;BME280;5571;48.110;-1.706;2022-08-30T13:17:30;101331.44;;;32.01;39.78
11036;BME280;5571;48.110;-1.706;2022-08-30T13:20:04;101332.88;;;31.90;40.23
11036;BME280;5571;48.110;-1.706;2022-08-30T13:22:35;101328.47;;;31.89;40.27
11036;BME280;5571;48.110;-1.706;2022-08-30T13:25:02;101330.59;;;31.87;40.10
11036;BME280;5571;48.110;-1.706;2022-08-30T13:27:28;101323.66;;;31.97;40.07
11036;BME280;5571;48.110;-1.706;2022-08-30T13:29:55;101326.44;;;32.24;39.50
11036;BME280;5571;48.110;-1.706;2022-08-30T13:32:20;101320.56;;;32.40;39.66
11036;BME280;5571;48.110;-1.706;2022-08-30T13:34:46;101322.44;;;32.39;39.11
11036;BME280;5571;48.110;-1.706;2022-08-30T13:37:21;101315.53;;;32.43;39.00
11036;BME280;5571;48.110;-1.706;2022-08-30T13:39:47;101316.56;;;32.42;38.89
11036;BME280;5571;48.110;-1.706;2022-08-30T13:42:12;101309.69;;;32.33;38.85
11036;BME280;5571;48.110;-1.706;2022-08-30T13:44:37;101307.16;;;32.45;39.60
11036;BME280;5571;48.110;-1.706;2022-08-30T13:47:03;101309.25;;;32.63;39.17
11036;BME280;5571;48.110;-1.706;2022-08-30T13:49:33;101308.59;;;32.80;38.68
11036;BME280;5571;48.110;-1.706;2022-08-30T13:52:03;101304.81;;;32.75;38.37
11036;BME280;5571;48.110;-1.706;2022-08-30T13:54:29;101300.41;;;32.74;38.27
11036;BME280;5571;48.110;-1.706;2022-08-30T13:56:55;101301.88;;;32.83;38.77
11036;BME280;5571;48.110;-1.706;2022-08-30T13:59:21;101296.47;;;32.70;38.37
11036;BME280;5571;48.110;-1.706;2022-08-30T14:01:47;101291.84;;;32.70;38.71
11036;BME280;5571;48.110;-1.706;2022-08-30T14:04:13;101288.94;;;32.46;38.15
11036;BME280;5571;48.110;-1.706;2022-08-30T14:06:39;101297.75;;;32.15;39.70
11036;BME280;5571;48.110;-1.706;2022-08-30T14:09:05;101288.56;;;32.35;39.34
11036;BME280;5571;48.110;-1.706;2022-08-30T14:11:33;101295.41;;;32.58;39.02
11036;BME280;5571;48.110;-1.706;2022-08-30T14:13:59;101293.06;;;32.88;38.67
11036;BME280;5571;48.110;-1.706;2022-08-30T14:16:24;101285.84;;;33.06;38.04
11036;BME280;5571;48.110;-1.706;2022-08-30T14:18:50;101292.81;;;32.96;37.53